sensor_id;sensor_type;location;lat;lon;timestamp;pressure;altitude;pressure_sealevel;temperature;humidity
9905;BME280;4991;43.566;27.820;2023-05-03T00:00:38;99548.50;;;8.62;100.00
9905;BME280;4991;43.566;27.820;2023-05-03T00:03:04;99543.63;;;8.59;100.00
9905;BME280;4991;43.566;27.820;2023-05-03T00:05:31;99546.34;;;8.64;100.00
9905;BME280;4991;43.566;27.820;2023-05-03T00:07:56;99544.44;;;8.55;100.00
9905;BME280;4991;43.566;27.820;2023-05-03T00:10:23;99546.63;;;8.53;100.00
9905;BME280;4991;43.566;27.820;2023-05-03T00:12:48;99540.13;;;8.54;100.00
9905;BME280;4991;43.566;27.820;2023-05-03T00:15:14;99539.84;;;8.50;100.00
9905;BME280;4991;43.566;27.820;2023-05-03T00:17:40;99540.63;;;8.46;100.00
9905;BME280;4991;43.566;27.820;2023-05-03T00:20:06;99528.16;;;8.35;100.00
9905;BME280;4991;43.566;27.820;2023-05-03T00:22:32;99537.91;;;8.31;100.00
9905;BME280;4991;43.566;27.820;2023-05-03T00:24:59;99540.63;;;8.21;100.00
9905;BME280;4991;43.566;27.820;2023-05-03T00:27:24;99537.63;;;8.17;100.00
9905;BME280;4991;43.566;27.820;2023-05-03T00:29:50;99549.28;;;8.18;100.00
9905;BME280;4991;43.566;27.820;2023-05-03T00:32:19;99552.50;;;8.00;100.00
9905;BME280;4991;43.566;27.820;2023-05-03T00:34:56;99557.91;;;7.95;100.00
9905;BME280;4991;43.566;27.820;2023-05-03T00:37:23;99559.56;;;7.96;100.00
9905;BME280;4991;43.566;27.820;2023-05-03T00:39:49;99559.28;;;7.92;100.00
9905;BME280;4991;43.566;27.820;2023-05-03T00:42:15;99562.56;;;8.04;100.00
9905;BME280;4991;43.566;27.820;2023-05-03T00:44:41;99562.81;;;7.98;100.00
9905;BME280;4991;43.566;27.820;2023-05-03T00:47:07;99548.19;;;7.99;100.00
9905;BME280;4991;43.566;27.820;2023-05-03T00:49:33;99539.22;;;8.03;100.00
9905;BME280;4991;43.566;27.820;2023-05-03T00:51:59;99539.25;;;8.08;100.00
9905;BME280;4991;43.566;27.820;2023-05-03T00:54:28;99543.38;;;8.26;100.00
9905;BME280;4991;43.566;27.820;2023-05-03T00:56:55;99543.63;;;8.39;100.00
9905;BME280;4991;43.566;27.820;2023-05-03T00:59:21;99548.53;;;8.42;100.00
9905;BME280;4991;43.566;27.820;2023-05-03T01:01:50;99541.19;;;8.48;100.00
9905;BME280;4991;43.566;27.820;2023-05-03T01:04:17;99546.34;;;8.64;100.00
9905;BME280;4991;43.566;27.820;2023-05-03T01:06:51;99546.63;;;8.63;100.00
9905;BME280;4991;43.566;27.820;2023-05-03T01:09:35;99550.41;;;8.67;100.00
9905;BME280;4991;43.566;27.820;2023-05-03T01:15:11;99539.28;;;8.78;100.00
9905;BME280;4991;43.566;27.820;2023-05-03T01:17:42;99539.28;;;8.73;100.00
9905;BME280;4991;43.566;27.820;2023-05-03T01:20:16;99531.13;;;8.73;100.00
9905;BME280;4991;43.566;27.820;2023-05-03T01:22:48;99533.56;;;8.70;100.00
9905;BME280;4991;43.566;27.820;2023-05-03T01:25:15;99528.16;;;8.75;100.00
9905;BME280;4991;43.566;27.820;2023-05-03T01:27:41;99521.63;;;8.71;100.00
9905;BME280;4991;43.566;27.820;2023-05-03T01:30:11;99521.34;;;8.52;100.00
9905;BME280;4991;43.566;27.820;2023-05-03T01:35:46;99520.28;;;8.33;100.00
9905;BME280;4991;43.566;27.820;2023-05-03T01:38:16;99512.97;;;8.24;100.00
9905;BME280;4991;43.566;27.820;2023-05-03T01:40:51;99520.53;;;8.17;100.00
9905;BME280;4991;43.566;27.820;2023-05-03T01:43:17;99519.97;;;8.05;100.00
9905;BME280;4991;43.566;27.820;2023-05-03T01:45:43;99527.03;;;7.96;100.00
9905;BME280;4991;43.566;27.820;2023-05-03T01:48:11;99522.13;;;7.77;100.00
9905;BME280;4991;43.566;27.820;2023-05-03T01:50:37;99525.06;;;7.61;100.00
9905;BME280;4991;43.566;27.820;2023-05-03T01:53:03;99532.59;;;7.54;100.00
9905;BME280;4991;43.566;27.820;2023-05-03T01:55:28;99530.72;;;7.49;100.00
9905;BME280;4991;43.566;27.820;2023-05-03T01:57:54;99531.16;;;7.36;100.00
9905;BME280;4991;43.566;27.820;2023-05-03T02:00:20;99526.31;;;7.43;100.00
9905;BME280;4991;43.566;27.820;2023-05-03T02:02:45;99519.28;;;7.42;100.00
9905;BME280;4991;43.566;27.820;2023-05-03T02:05:12;99519.28;;;7.42;100.00
9905;BME280;4991;43.566;27.820;2023-05-03T02:07:37;99531.47;;;7.40;100.00
9905;BME280;4991;43.566;27.820;2023-05-03T02:10:07;99534.72;;;7.42;100.00
9905;BME280;4991;43.566;27.820;2023-05-03T02:12:43;99541.75;;;7.38;100.00
9905;BME280;4991;43.566;27.820;2023-05-03T02:15:10;99531.69;;;7.28;100.00
9905;BME280;4991;43.566;27.820;2023-05-03T02:17:36;99537.38;;;7.32;100.00
9905;BME280;4991;43.566;27.820;2023-05-03T02:20:02;99539.53;;;7.30;100.00
9905;BME280;4991;43.566;27.820;2023-05-03T02:22:31;99540.38;;;7.30;100.00
9905;BME280;4991;43.566;27.820;2023-05-03T02:24:56;99546.94;;;7.39;100.00
9905;BME280;4991;43.566;27.820;2023-05-03T02:27:23;99548.78;;;7.34;100.00
9905;BME280;4991;43.566;27.820;2023-05-03T02:29:49;99546.13;;;7.44;100.00
9905;BME280;4991;43.566;27.820;2023-05-03T02:32:14;99542.66;;;7.58;100.00
9905;BME280;4991;43.566;27.820;2023-05-03T02:34:40;99543.47;;;7.59;100.00
9905;BME280;4991;43.566;27.820;2023-05-03T02:37:06;99558.09;;;7.58;100.00
9905;BME280;4991;43.566;27.820;2023-05-03T02:39:32;99549.69;;;7.64;100.00
9905;BME280;4991;43.566;27.820;2023-05-03T02:41:57;99554.38;;;7.79;100.00
9905;BME280;4991;43.566;27.820;2023-05-03T02:44:23;99560.88;;;7.88;100.00
9905;BME280;4991;43.566;27.820;2023-05-03T02:46:48;99552.47;;;7.84;100.00
9905;BME280;4991;43.566;27.820;2023-05-03T02:49:14;99553.03;;;7.86;100.00
9905;BME280;4991;43.566;27.820;2023-05-03T02:51:40;99555.75;;;7.86;100.00
9905;BME280;4991;43.566;27.820;2023-05-03T02:54:05;99555.75;;;7.92;100.00
9905;BME280;4991;43.566;27.820;2023-05-03T02:56:31;99551.44;;;8.06;100.00
9905;BME280;4991;43.566;27.820;2023-05-03T02:58:58;99552.50;;;7.95;100.00
9905;BME280;4991;43.566;27.820;2023-05-03T03:01:23;99563.06;;;7.91;100.00
9905;BME280;4991;43.566;27.820;2023-05-03T03:03:49;99563.59;;;7.88;100.00
9905;BME280;4991;43.566;27.820;2023-05-03T03:06:15;99564.44;;;7.88;100.00
9905;BME280;4991;43.566;27.820;2023-05-03T03:08:40;99560.88;;;7.83;100.00
9905;BME280;4991;43.566;27.820;2023-05-03T03:11:06;99563.88;;;7.86;100.00
9905;BME280;4991;43.566;27.820;2023-05-03T03:13:32;99568.25;;;8.08;100.00
9905;BME280;4991;43.566;27.820;2023-05-03T03:15:57;99564.75;;;8.02;100.00
9905;BME280;4991;43.566;27.820;2023-05-03T03:18:23;99556.84;;;7.96;100.00
9905;BME280;4991;43.566;27.820;2023-05-03T03:20:48;99566.34;;;7.98;100.00
9905;BME280;4991;43.566;27.820;2023-05-03T03:23:14;99559.06;;;8.14;100.00
9905;BME280;4991;43.566;27.820;2023-05-03T03:25:43;99573.19;;;8.31;100.00
9905;BME280;4991;43.566;27.820;2023-05-03T03:28:08;99568.03;;;8.29;100.00
9905;BME280;4991;43.566;27.820;2023-05-03T03:30:34;99560.44;;;8.31;100.00
9905;BME280;4991;43.566;27.820;2023-05-03T03:32:59;99567.78;;;8.31;100.00
9905;BME280;4991;43.566;27.820;2023-05-03T03:35:25;99562.34;;;8.41;100.00
9905;BME280;4991;43.566;27.820;2023-05-03T03:37:51;99553.69;;;8.44;100.00
9905;BME280;4991;43.566;27.820;2023-05-03T03:40:17;99565.06;;;8.56;100.00
9905;BME280;4991;43.566;27.820;2023-05-03T03:42:42;99567.00;;;8.50;100.00
9905;BME280;4991;43.566;27.820;2023-05-03T03:45:08;99577.31;;;8.53;100.00
9905;BME280;4991;43.566;27.820;2023-05-03T03:47:34;99562.34;;;8.46;100.00
9905;BME280;4991;43.566;27.820;2023-05-03T03:50:00;99563.72;;;8.58;100.00
9905;BME280;4991;43.566;27.820;2023-05-03T03:52:28;99565.91;;;8.61;100.00
9905;BME280;4991;43.566;27.820;2023-05-03T03:54:54;99566.72;;;8.57;100.00
9905;BME280;4991;43.566;27.820;2023-05-03T03:57:20;99573.47;;;8.69;100.00
9905;BME280;4991;43.566;27.820;2023-05-03T03:59:45;99572.94;;;8.67;100.00
9905;BME280;4991;43.566;27.820;2023-05-03T04:02:11;99569.41;;;8.82;100.00
9905;BME280;4991;43.566;27.820;2023-05-03T04:04:37;99565.88;;;8.81;100.00
9905;BME280;4991;43.566;27.820;2023-05-03T04:07:03;99574.84;;;8.82;100.00
9905;BME280;4991;43.566;27.820;2023-05-03T04:09:29;99579.44;;;8.96;100.00
9905;BME280;4991;43.566;27.820;2023-05-03T04:11:54;99587.59;;;8.96;100.00
9905;BME280;4991;43.566;27.820;2023-05-03T04:14:20;99593.81;;;9.07;100.00
9905;BME280;4991;43.566;27.820;2023-05-03T04:16:47;99600.88;;;9.03;100.00
9905;BME280;4991;43.566;27.820;2023-05-03T04:19:12;99600.34;;;9.06;100.00
9905;BME280;4991;43.566;27.820;2023-05-03T04:21:38;99605.50;;;9.12;100.00
9905;BME280;4991;43.566;27.820;2023-05-03T04:24:05;99599.50;;;9.10;100.00
9905;BME280;4991;43.566;27.820;2023-05-03T04:26:32;99584.84;;;9.17;100.00
9905;BME280;4991;43.566;27.820;2023-05-03T04:28:58;99589.97;;;9.33;100.00
9905;BME280;4991;43.566;27.820;2023-05-03T04:31:24;99588.84;;;9.34;100.00
9905;BME280;4991;43.566;27.820;2023-05-03T04:33:49;99582.88;;;9.37;100.00
9905;BME280;4991;43.566;27.820;2023-05-03T04:36:15;99598.88;;;9.44;100.00
9905;BME280;4991;43.566;27.820;2023-05-03T04:38:41;99601.59;;;9.44;100.00
9905;BME280;4991;43.566;27.820;2023-05-03T04:41:10;99603.19;;;9.60;100.00
9905;BME280;4991;43.566;27.820;2023-05-03T04:43:35;99602.06;;;9.66;100.00
9905;BME280;4991;43.566;27.820;2023-05-03T04:46:02;99607.19;;;9.77;100.00
9905;BME280;4991;43.566;27.820;2023-05-03T04:48:30;99597.69;;;9.75;100.00
9905;BME280;4991;43.566;27.820;2023-05-03T04:50:56;99598.13;;;9.97;100.00
9905;BME280;4991;43.566;27.820;2023-05-03T04:53:32;99588.53;;;10.14;100.00
9905;BME280;4991;43.566;27.820;2023-05-03T04:55:57;99587.13;;;10.22;100.00
9905;BME280;4991;43.566;27.820;2023-05-03T04:58:23;99576.19;;;10.27;100.00
9905;BME280;4991;43.566;27.820;2023-05-03T05:00:49;99590.22;;;10.49;100.00
9905;BME280;4991;43.566;27.820;2023-05-03T05:03:15;99592.28;;;10.62;100.00
9905;BME280;4991;43.566;27.820;2023-05-03T05:05:40;99595.41;;;10.79;100.00
9905;BME280;4991;43.566;27.820;2023-05-03T05:08:06;99585.91;;;11.05;100.00
9905;BME280;4991;43.566;27.820;2023-05-03T05:10:35;99586.13;;;11.09;100.00
9905;BME280;4991;43.566;27.820;2023-05-03T05:13:02;99591.50;;;11.19;100.00
9905;BME280;4991;43.566;27.820;2023-05-03T05:15:27;99585.56;;;11.12;100.00
9905;BME280;4991;43.566;27.820;2023-05-03T05:17:53;99597.28;;;11.36;100.00
9905;BME280;4991;43.566;27.820;2023-05-03T05:20:18;99594.16;;;11.47;100.00
9905;BME280;4991;43.566;27.820;2023-05-03T05:22:44;99587.38;;;11.45;100.00
9905;BME280;4991;43.566;27.820;2023-05-03T05:25:10;99590.34;;;11.48;100.00
9905;BME280;4991;43.566;27.820;2023-05-03T05:27:36;99579.50;;;11.43;100.00
9905;BME280;4991;43.566;27.820;2023-05-03T05:30:01;99593.19;;;11.62;100.00
9905;BME280;4991;43.566;27.820;2023-05-03T05:32:29;99592.94;;;11.63;100.00
9905;BME280;4991;43.566;27.820;2023-05-03T05:34:55;99598.16;;;12.02;100.00
9905;BME280;4991;43.566;27.820;2023-05-03T05:37:24;99601.25;;;12.14;100.00
9905;BME280;4991;43.566;27.820;2023-05-03T05:39:50;99603.03;;;12.24;100.00
9905;BME280;4991;43.566;27.820;2023-05-03T05:42:16;99600.44;;;12.51;100.00
9905;BME280;4991;43.566;27.820;2023-05-03T05:44:42;99599.75;;;12.77;100.00
9905;BME280;4991;43.566;27.820;2023-05-03T05:47:08;99604.09;;;12.78;100.00
9905;BME280;4991;43.566;27.820;2023-05-03T05:49:34;99598.38;;;12.93;100.00
9905;BME280;4991;43.566;27.820;2023-05-03T05:52:00;99592.09;;;13.25;100.00
9905;BME280;4991;43.566;27.820;2023-05-03T05:54:26;99599.81;;;13.37;100.00
9905;BME280;4991;43.566;27.820;2023-05-03T05:56:52;99595.47;;;13.36;100.00
9905;BME280;4991;43.566;27.820;2023-05-03T05:59:18;99599.94;;;13.59;100.00
9905;BME280;4991;43.566;27.820;2023-05-03T06:01:43;99598.91;;;13.55;100.00
9905;BME280;4991;43.566;27.820;2023-05-03T06:04:11;99597.31;;;13.54;100.00
9905;BME280;4991;43.566;27.820;2023-05-03T06:06:37;99609.34;;;13.39;100.00
9905;BME280;4991;43.566;27.820;2023-05-03T06:09:05;99606.72;;;13.34;100.00
9905;BME280;4991;43.566;27.820;2023-05-03T06:11:31;99612.81;;;13.58;100.00
9905;BME280;4991;43.566;27.820;2023-05-03T06:13:58;99600.34;;;13.66;100.00
9905;BME280;4991;43.566;27.820;2023-05-03T06:16:24;99612.50;;;13.60;100.00
9905;BME280;4991;43.566;27.820;2023-05-03T06:18:50;99603.91;;;13.53;100.00
9905;BME280;4991;43.566;27.820;2023-05-03T06:21:16;99602.16;;;13.57;100.00
9905;BME280;4991;43.566;27.820;2023-05-03T06:23:43;99605.81;;;13.79;100.00
9905;BME280;4991;43.566;27.820;2023-05-03T06:26:11;99611.97;;;13.98;100.00
9905;BME280;4991;43.566;27.820;2023-05-03T06:28:37;99613.59;;;13.99;100.00
9905;BME280;4991;43.566;27.820;2023-05-03T06:31:03;99608.94;;;13.86;100.00
9905;BME280;4991;43.566;27.820;2023-05-03T06:33:29;99617.56;;;13.93;100.00
9905;BME280;4991;43.566;27.820;2023-05-03T06:35:55;99620.50;;;14.10;100.00
9905;BME280;4991;43.566;27.820;2023-05-03T06:38:21;99624.53;;;14.40;100.00
9905;BME280;4991;43.566;27.820;2023-05-03T06:40:47;99617.88;;;14.55;100.00
9905;BME280;4991;43.566;27.820;2023-05-03T06:43:14;99624.56;;;14.62;100.00
9905;BME280;4991;43.566;27.820;2023-05-03T06:45:41;99620.25;;;14.70;100.00
9905;BME280;4991;43.566;27.820;2023-05-03T06:48:07;99627.50;;;14.66;100.00
9905;BME280;4991;43.566;27.820;2023-05-03T06:50:34;99628.13;;;14.85;100.00
9905;BME280;4991;43.566;27.820;2023-05-03T06:53:00;99626.94;;;14.77;100.00
9905;BME280;4991;43.566;27.820;2023-05-03T06:55:25;99632.41;;;14.55;100.00
9905;BME280;4991;43.566;27.820;2023-05-03T06:57:52;99630.00;;;14.98;100.00
9905;BME280;4991;43.566;27.820;2023-05-03T07:00:18;99621.31;;;15.04;100.00
9905;BME280;4991;43.566;27.820;2023-05-03T07:02:45;99622.66;;;15.07;100.00
9905;BME280;4991;43.566;27.820;2023-05-03T07:05:11;99620.47;;;15.26;100.00
9905;BME280;4991;43.566;27.820;2023-05-03T07:07:36;99615.03;;;15.57;100.00
9905;BME280;4991;43.566;27.820;2023-05-03T07:10:02;99619.09;;;15.68;100.00
9905;BME280;4991;43.566;27.820;2023-05-03T07:12:28;99608.72;;;15.56;100.00
9905;BME280;4991;43.566;27.820;2023-05-03T07:14:54;99597.53;;;15.44;100.00
9905;BME280;4991;43.566;27.820;2023-05-03T07:17:20;99603.44;;;15.68;100.00
9905;BME280;4991;43.566;27.820;2023-05-03T07:19:47;99604.25;;;15.69;100.00
9905;BME280;4991;43.566;27.820;2023-05-03T07:22:13;99594.06;;;15.69;100.00
9905;BME280;4991;43.566;27.820;2023-05-03T07:24:40;99597.28;;;15.63;100.00
9905;BME280;4991;43.566;27.820;2023-05-03T07:27:06;99599.19;;;15.54;100.00
9905;BME280;4991;43.566;27.820;2023-05-03T07:29:32;99603.06;;;15.52;100.00
9905;BME280;4991;43.566;27.820;2023-05-03T07:31:58;99610.66;;;15.56;100.00
9905;BME280;4991;43.566;27.820;2023-05-03T07:34:24;99606.28;;;15.55;100.00
9905;BME280;4991;43.566;27.820;2023-05-03T07:36:49;99602.47;;;15.64;100.00
9905;BME280;4991;43.566;27.820;2023-05-03T07:39:16;99604.56;;;16.15;100.00
9905;BME280;4991;43.566;27.820;2023-05-03T07:41:42;99609.03;;;16.02;100.00
9905;BME280;4991;43.566;27.820;2023-05-03T07:44:08;99614.28;;;16.29;100.00
9905;BME280;4991;43.566;27.820;2023-05-03T07:46:34;99613.78;;;16.27;100.00
9905;BME280;4991;43.566;27.820;2023-05-03T07:49:01;99612.44;;;15.99;100.00
9905;BME280;4991;43.566;27.820;2023-05-03T07:51:27;99618.38;;;15.84;100.00
9905;BME280;4991;43.566;27.820;2023-05-03T07:53:54;99613.16;;;15.74;100.00
9905;BME280;4991;43.566;27.820;2023-05-03T07:56:22;99622.47;;;16.04;100.00
9905;BME280;4991;43.566;27.820;2023-05-03T07:58:48;99636.91;;;16.26;100.00
9905;BME280;4991;43.566;27.820;2023-05-03T08:01:14;99635.25;;;16.08;100.00
9905;BME280;4991;43.566;27.820;2023-05-03T08:03:40;99636.22;;;16.12;100.00
9905;BME280;4991;43.566;27.820;2023-05-03T08:06:05;99641.84;;;16.46;100.00
9905;BME280;4991;43.566;27.820;2023-05-03T08:08:31;99640.44;;;16.18;100.00
9905;BME280;4991;43.566;27.820;2023-05-03T08:10:58;99657.72;;;16.10;100.00
9905;BME280;4991;43.566;27.820;2023-05-03T08:13:23;99664.06;;;16.19;100.00
9905;BME280;4991;43.566;27.820;2023-05-03T08:15:49;99664.63;;;15.99;100.00
9905;BME280;4991;43.566;27.820;2023-05-03T08:18:15;99665.00;;;16.23;100.00
9905;BME280;4991;43.566;27.820;2023-05-03T08:20:41;99667.38;;;16.47;100.00
9905;BME280;4991;43.566;27.820;2023-05-03T08:23:06;99658.59;;;16.36;100.00
9905;BME280;4991;43.566;27.820;2023-05-03T08:25:32;99669.09;;;16.34;100.00
9905;BME280;4991;43.566;27.820;2023-05-03T08:27:58;99664.81;;;16.67;100.00
9905;BME280;4991;43.566;27.820;2023-05-03T08:30:24;99670.28;;;17.19;100.00
9905;BME280;4991;43.566;27.820;2023-05-03T08:32:51;99681.44;;;17.39;100.00
9905;BME280;4991;43.566;27.820;2023-05-03T08:35:16;99688.91;;;17.39;99.64
9905;BME280;4991;43.566;27.820;2023-05-03T08:37:43;99686.81;;;17.27;100.00
9905;BME280;4991;43.566;27.820;2023-05-03T08:40:10;99692.25;;;17.70;100.00
9905;BME280;4991;43.566;27.820;2023-05-03T08:42:44;99691.25;;;17.74;100.00
9905;BME280;4991;43.566;27.820;2023-05-03T08:45:12;99692.09;;;17.66;100.00
9905;BME280;4991;43.566;27.820;2023-05-03T08:47:39;99684.16;;;18.02;100.00
9905;BME280;4991;43.566;27.820;2023-05-03T08:50:10;99689.13;;;17.80;100.00
9905;BME280;4991;43.566;27.820;2023-05-03T08:52:38;99679.31;;;17.99;100.00
9905;BME280;4991;43.566;27.820;2023-05-03T08:55:06;99673.97;;;18.03;100.00
9905;BME280;4991;43.566;27.820;2023-05-03T08:57:33;99657.03;;;17.84;100.00
9905;BME280;4991;43.566;27.820;2023-05-03T09:00:00;99667.22;;;17.92;100.00
9905;BME280;4991;43.566;27.820;2023-05-03T09:02:27;99674.88;;;17.78;94.25
9905;BME280;4991;43.566;27.820;2023-05-03T09:04:55;99676.59;;;17.91;95.63
9905;BME280;4991;43.566;27.820;2023-05-03T09:07:21;99681.38;;;18.11;95.27
9905;BME280;4991;43.566;27.820;2023-05-03T09:09:47;99688.72;;;18.07;94.78
9905;BME280;4991;43.566;27.820;2023-05-03T09:12:36;99700.69;;;18.11;94.07
9905;BME280;4991;43.566;27.820;2023-05-03T09:15:03;99700.91;;;18.35;96.11
9905;BME280;4991;43.566;27.820;2023-05-03T09:17:30;99702.56;;;17.90;100.00
9905;BME280;4991;43.566;27.820;2023-05-03T09:19:57;99702.56;;;17.90;95.92
9905;BME280;4991;43.566;27.820;2023-05-03T09:22:25;99699.59;;;17.40;100.00
9905;BME280;4991;43.566;27.820;2023-05-03T09:24:56;99684.53;;;17.46;100.00
9905;BME280;4991;43.566;27.820;2023-05-03T09:27:23;99693.91;;;18.09;100.00
9905;BME280;4991;43.566;27.820;2023-05-03T09:29:49;99681.47;;;17.94;100.00
9905;BME280;4991;43.566;27.820;2023-05-03T09:32:15;99670.63;;;17.89;100.00
9905;BME280;4991;43.566;27.820;2023-05-03T09:34:42;99670.53;;;17.68;100.00
9905;BME280;4991;43.566;27.820;2023-05-03T09:37:08;99677.34;;;18.87;100.00
9905;BME280;4991;43.566;27.820;2023-05-03T09:39:34;99664.41;;;20.22;90.36
9905;BME280;4991;43.566;27.820;2023-05-03T09:42:10;99655.47;;;21.44;80.03
9905;BME280;4991;43.566;27.820;2023-05-03T09:44:54;99657.00;;;23.04;69.59
9905;BME280;4991;43.566;27.820;2023-05-03T09:47:19;99660.41;;;22.59;69.11
9905;BME280;4991;43.566;27.820;2023-05-03T09:49:49;99654.28;;;23.87;63.98
9905;BME280;4991;43.566;27.820;2023-05-03T09:52:15;99643.09;;;24.06;62.05
9905;BME280;4991;43.566;27.820;2023-05-03T09:54:41;99648.34;;;23.89;60.13
9905;BME280;4991;43.566;27.820;2023-05-03T09:57:07;99657.72;;;23.58;60.93
9905;BME280;4991;43.566;27.820;2023-05-03T09:59:34;99660.56;;;22.85;56.10
9905;BME280;4991;43.566;27.820;2023-05-03T10:02:06;99651.09;;;22.86;56.61
9905;BME280;4991;43.566;27.820;2023-05-03T10:04:42;99643.38;;;22.80;56.64
9905;BME280;4991;43.566;27.820;2023-05-03T10:07:11;99645.66;;;22.40;54.70
9905;BME280;4991;43.566;27.820;2023-05-03T10:09:47;99642.22;;;23.38;52.70
9905;BME280;4991;43.566;27.820;2023-05-03T10:12:13;99641.47;;;23.60;53.57
9905;BME280;4991;43.566;27.820;2023-05-03T10:14:46;99639.75;;;23.33;49.96
9905;BME280;4991;43.566;27.820;2023-05-03T10:17:36;99634.06;;;24.13;51.09
9905;BME280;4991;43.566;27.820;2023-05-03T10:25:31;99629.47;;;24.50;51.19
9905;BME280;4991;43.566;27.820;2023-05-03T10:28:05;99639.59;;;25.21;48.94
9905;BME280;4991;43.566;27.820;2023-05-03T10:30:38;99626.94;;;24.94;46.87
9905;BME280;4991;43.566;27.820;2023-05-03T10:35:50;99632.28;;;26.81;42.20
9905;BME280;4991;43.566;27.820;2023-05-03T10:38:23;99633.91;;;26.89;40.14
9905;BME280;4991;43.566;27.820;2023-05-03T10:40:49;99627.56;;;26.99;40.74
9905;BME280;4991;43.566;27.820;2023-05-03T10:46:05;99627.06;;;28.04;38.05
9905;BME280;4991;43.566;27.820;2023-05-03T10:48:33;99628.97;;;26.10;39.03
9905;BME280;4991;43.566;27.820;2023-05-03T10:51:31;99624.16;;;27.44;40.21
9905;BME280;4991;43.566;27.820;2023-05-03T10:54:00;99613.84;;;27.94;40.53
9905;BME280;4991;43.566;27.820;2023-05-03T10:56:26;99619.41;;;27.62;37.61
9905;BME280;4991;43.566;27.820;2023-05-03T10:58:52;99619.38;;;27.51;38.72
9905;BME280;4991;43.566;27.820;2023-05-03T11:01:22;99612.13;;;26.00;40.94
9905;BME280;4991;43.566;27.820;2023-05-03T11:04:09;99624.41;;;25.15;43.19
9905;BME280;4991;43.566;27.820;2023-05-03T11:06:38;99620.06;;;25.21;42.87
9905;BME280;4991;43.566;27.820;2023-05-03T11:09:07;99613.50;;;26.23;43.80
9905;BME280;4991;43.566;27.820;2023-05-03T11:11:35;99611.72;;;25.21;44.52
9905;BME280;4991;43.566;27.820;2023-05-03T11:14:01;99604.25;;;26.66;43.50
9905;BME280;4991;43.566;27.820;2023-05-03T11:16:28;99617.22;;;25.51;42.78
9905;BME280;4991;43.566;27.820;2023-05-03T11:18:54;99624.25;;;24.19;43.71
9905;BME280;4991;43.566;27.820;2023-05-03T11:21:20;99618.53;;;23.44;43.83
9905;BME280;4991;43.566;27.820;2023-05-03T11:23:45;99604.88;;;22.78;45.63
9905;BME280;4991;43.566;27.820;2023-05-03T11:26:12;99611.59;;;23.35;46.23
9905;BME280;4991;43.566;27.820;2023-05-03T11:28:39;99619.59;;;23.81;45.15
9905;BME280;4991;43.566;27.820;2023-05-03T11:31:05;99610.91;;;24.32;43.98
9905;BME280;4991;43.566;27.820;2023-05-03T11:33:33;99604.50;;;24.31;45.01
9905;BME280;4991;43.566;27.820;2023-05-03T11:36:04;99606.78;;;24.22;42.96
9905;BME280;4991;43.566;27.820;2023-05-03T11:38:35;99592.25;;;24.91;40.58
9905;BME280;4991;43.566;27.820;2023-05-03T11:41:12;99584.00;;;25.79;40.60
9905;BME280;4991;43.566;27.820;2023-05-03T11:43:46;99574.13;;;25.08;41.44
9905;BME280;4991;43.566;27.820;2023-05-03T11:46:16;99579.88;;;25.25;42.05
9905;BME280;4991;43.566;27.820;2023-05-03T11:48:43;99567.53;;;26.72;40.10
9905;BME280;4991;43.566;27.820;2023-05-03T11:51:09;99557.88;;;25.54;39.80
9905;BME280;4991;43.566;27.820;2023-05-03T11:53:37;99565.84;;;26.53;38.75
9905;BME280;4991;43.566;27.820;2023-05-03T11:56:12;99556.44;;;24.64;39.10
9905;BME280;4991;43.566;27.820;2023-05-03T11:59:03;99570.06;;;24.69;40.07
9905;BME280;4991;43.566;27.820;2023-05-03T12:01:29;99562.34;;;25.21;39.13
9905;BME280;4991;43.566;27.820;2023-05-03T12:03:58;99565.91;;;24.59;40.05
9905;BME280;4991;43.566;27.820;2023-05-03T12:06:24;99557.94;;;24.84;40.14
9905;BME280;4991;43.566;27.820;2023-05-03T12:08:51;99565.22;;;24.36;39.16
9905;BME280;4991;43.566;27.820;2023-05-03T12:11:17;99578.31;;;23.61;41.25
9905;BME280;4991;43.566;27.820;2023-05-03T12:13:43;99562.31;;;24.55;39.24
9905;BME280;4991;43.566;27.820;2023-05-03T12:16:09;99576.34;;;24.92;39.76
9905;BME280;4991;43.566;27.820;2023-05-03T12:21:10;99581.34;;;22.03;43.74
9905;BME280;4991;43.566;27.820;2023-05-03T12:23:36;99572.22;;;20.97;44.80
9905;BME280;4991;43.566;27.820;2023-05-03T12:26:02;99566.91;;;20.01;49.31
9905;BME280;4991;43.566;27.820;2023-05-03T12:28:28;99575.88;;;19.50;51.50
9905;BME280;4991;43.566;27.820;2023-05-03T12:30:53;99571.44;;;19.24;54.87
9905;BME280;4991;43.566;27.820;2023-05-03T12:33:19;99587.25;;;19.03;58.18
9905;BME280;4991;43.566;27.820;2023-05-03T12:35:45;99590.22;;;18.45;60.52
9905;BME280;4991;43.566;27.820;2023-05-03T12:38:11;99585.25;;;18.30;62.55
9905;BME280;4991;43.566;27.820;2023-05-03T12:40:37;99582.63;;;17.84;65.29
9905;BME280;4991;43.566;27.820;2023-05-03T12:43:03;99579.69;;;17.89;68.26
9905;BME280;4991;43.566;27.820;2023-05-03T12:45:29;99556.25;;;17.45;71.43
9905;BME280;4991;43.566;27.820;2023-05-03T12:47:57;99566.38;;;17.62;75.83
9905;BME280;4991;43.566;27.820;2023-05-03T12:50:22;99553.31;;;17.42;77.88
9905;BME280;4991;43.566;27.820;2023-05-03T12:52:49;99539.50;;;17.13;83.10
9905;BME280;4991;43.566;27.820;2023-05-03T12:55:15;99522.50;;;17.11;85.94
9905;BME280;4991;43.566;27.820;2023-05-03T12:57:40;99538.22;;;17.02;89.09
9905;BME280;4991;43.566;27.820;2023-05-03T13:00:07;99552.78;;;17.02;85.30
9905;BME280;4991;43.566;27.820;2023-05-03T13:02:34;99562.44;;;17.25;85.31
9905;BME280;4991;43.566;27.820;2023-05-03T13:04:59;99562.09;;;17.27;84.28
9905;BME280;4991;43.566;27.820;2023-05-03T13:07:26;99552.25;;;17.17;89.35
9905;BME280;4991;43.566;27.820;2023-05-03T13:10:10;99551.03;;;16.89;92.46
9905;BME280;4991;43.566;27.820;2023-05-03T13:12:36;99542.97;;;16.58;94.77
9905;BME280;4991;43.566;27.820;2023-05-03T13:15:02;99542.97;;;16.58;96.34
9905;BME280;4991;43.566;27.820;2023-05-03T13:17:30;99536.97;;;16.73;97.91
9905;BME280;4991;43.566;27.820;2023-05-03T13:19:55;99530.88;;;16.59;100.00
9905;BME280;4991;43.566;27.820;2023-05-03T13:22:22;99524.31;;;16.90;100.00
9905;BME280;4991;43.566;27.820;2023-05-03T13:24:49;99520.81;;;16.63;100.00
9905;BME280;4991;43.566;27.820;2023-05-03T13:27:15;99510.00;;;16.41;100.00